sensor_id;sensor_type;location;lat;lon;timestamp;P1;durP1;ratioP1;P2;durP2;ratioP2
63396;SDS011;49532;45.068;38.928;2022-07-22T03:56:08;4.90;;;1.10;;
63396;SDS011;49532;45.068;38.928;2022-07-22T04:01:09;6.75;;;1.88;;
63396;SDS011;49532;45.068;38.928;2022-07-22T04:11:20;5.40;;;1.73;;
63396;SDS011;49532;45.068;38.928;2022-07-22T04:16:21;12.63;;;5.63;;
63396;SDS011;49532;45.068;38.928;2022-07-22T04:21:32;3.78;;;1.80;;
63396;SDS011;49532;45.068;38.928;2022-07-22T04:26:38;5.28;;;1.80;;
63396;SDS011;49532;45.068;38.928;2022-07-22T04:31:40;7.20;;;1.17;;
63396;SDS011;49532;45.068;38.928;2022-07-22T04:36:48;3.55;;;1.35;;
63396;SDS011;49532;45.068;38.928;2022-07-22T04:41:49;10.45;;;1.75;;
63396;SDS011;49532;45.068;38.928;2022-07-22T04:46:52;8.82;;;1.63;;
63396;SDS011;49532;45.068;38.928;2022-07-22T04:51:54;6.80;;;2.00;;
63396;SDS011;49532;45.068;38.928;2022-07-22T04:57:07;12.68;;;2.67;;
63396;SDS011;49532;45.068;38.928;2022-07-22T05:02:08;10.07;;;1.48;;
63396;SDS011;49532;45.068;38.928;2022-07-22T05:07:09;5.07;;;1.27;;
63396;SDS011;49532;45.068;38.928;2022-07-22T05:12:10;2.50;;;1.20;;
63396;SDS011;49532;45.068;38.928;2022-07-22T05:17:12;1.48;;;0.93;;
63396;SDS011;49532;45.068;38.928;2022-07-22T05:22:24;3.30;;;1.25;;
63396;SDS011;49532;45.068;38.928;2022-07-22T05:27:25;4.88;;;1.08;;
63396;SDS011;49532;45.068;38.928;2022-07-22T05:32:27;4.28;;;1.30;;
63396;SDS011;49532;45.068;38.928;2022-07-22T05:37:33;7.35;;;1.95;;
63396;SDS011;49532;45.068;38.928;2022-07-22T05:42:35;4.35;;;1.20;;
63396;SDS011;49532;45.068;38.928;2022-07-22T05:47:36;3.10;;;1.10;;
63396;SDS011;49532;45.068;38.928;2022-07-22T05:52:37;4.65;;;1.20;;
63396;SDS011;49532;45.068;38.928;2022-07-22T05:57:41;3.47;;;1.08;;
63396;SDS011;49532;45.068;38.928;2022-07-22T06:02:42;1.88;;;1.17;;
63396;SDS011;49532;45.068;38.928;2022-07-22T06:07:48;3.67;;;1.15;;
63396;SDS011;49532;45.068;38.928;2022-07-22T06:13:02;3.08;;;1.52;;
63396;SDS011;49532;45.068;38.928;2022-07-22T06:18:04;3.35;;;1.33;;
63396;SDS011;49532;45.068;38.928;2022-07-22T06:23:05;4.65;;;1.40;;
63396;SDS011;49532;45.068;38.928;2022-07-22T06:28:08;7.82;;;1.30;;
63396;SDS011;49532;45.068;38.928;2022-07-22T06:33:10;5.70;;;1.30;;
63396;SDS011;49532;45.068;38.928;2022-07-22T06:38:11;4.78;;;1.50;;
63396;SDS011;49532;45.068;38.928;2022-07-22T06:43:32;3.65;;;1.20;;
63396;SDS011;49532;45.068;38.928;2022-07-22T06:49:02;11.82;;;2.13;;
63396;SDS011;49532;45.068;38.928;2022-07-22T06:54:07;4.68;;;1.27;;
63396;SDS011;49532;45.068;38.928;2022-07-22T06:59:08;8.98;;;1.20;;
63396;SDS011;49532;45.068;38.928;2022-07-22T07:04:10;4.60;;;1.05;;
63396;SDS011;49532;45.068;38.928;2022-07-22T07:09:11;6.97;;;1.30;;
63396;SDS011;49532;45.068;38.928;2022-07-22T07:14:14;3.72;;;1.23;;
63396;SDS011;49532;45.068;38.928;2022-07-22T07:19:15;1.95;;;1.05;;
63396;SDS011;49532;45.068;38.928;2022-07-22T07:24:16;3.30;;;1.10;;
63396;SDS011;49532;45.068;38.928;2022-07-22T07:29:18;6.47;;;1.30;;
63396;SDS011;49532;45.068;38.928;2022-07-22T07:34:19;3.60;;;1.10;;
63396;SDS011;49532;45.068;38.928;2022-07-22T07:39:20;9.25;;;1.50;;
63396;SDS011;49532;45.068;38.928;2022-07-22T07:44:22;4.13;;;1.40;;
63396;SDS011;49532;45.068;38.928;2022-07-22T07:49:23;3.95;;;1.90;;
63396;SDS011;49532;45.068;38.928;2022-07-22T07:54:24;4.57;;;1.33;;
63396;SDS011;49532;45.068;38.928;2022-07-22T07:59:28;3.38;;;1.08;;
63396;SDS011;49532;45.068;38.928;2022-07-22T08:04:30;6.05;;;1.38;;
63396;SDS011;49532;45.068;38.928;2022-07-22T08:09:32;4.10;;;1.30;;
63396;SDS011;49532;45.068;38.928;2022-07-22T08:14:38;3.72;;;1.45;;
63396;SDS011;49532;45.068;38.928;2022-07-22T08:19:57;7.00;;;1.30;;
63396;SDS011;49532;45.068;38.928;2022-07-22T08:24:58;5.60;;;1.10;;
63396;SDS011;49532;45.068;38.928;2022-07-22T08:30:03;3.45;;;1.30;;
63396;SDS011;49532;45.068;38.928;2022-07-22T08:35:06;10.82;;;1.60;;
63396;SDS011;49532;45.068;38.928;2022-07-22T08:40:11;10.77;;;1.38;;
63396;SDS011;49532;45.068;38.928;2022-07-22T08:45:12;5.88;;;0.90;;
63396;SDS011;49532;45.068;38.928;2022-07-22T08:50:14;11.75;;;1.88;;
63396;SDS011;49532;45.068;38.928;2022-07-22T08:55:26;7.72;;;2.83;;
63396;SDS011;49532;45.068;38.928;2022-07-22T09:00:27;7.63;;;1.27;;
63396;SDS011;49532;45.068;38.928;2022-07-22T09:10:38;14.63;;;1.58;;
63396;SDS011;49532;45.068;38.928;2022-07-22T09:16:08;2.80;;;1.30;;
63396;SDS011;49532;45.068;38.928;2022-07-22T09:21:43;16.63;;;2.00;;
63396;SDS011;49532;45.068;38.928;2022-07-22T09:27:10;13.88;;;2.17;;
63396;SDS011;49532;45.068;38.928;2022-07-22T09:32:42;51.15;;;3.78;;
63396;SDS011;49532;45.068;38.928;2022-07-22T09:38:17;5.20;;;1.95;;
63396;SDS011;49532;45.068;38.928;2022-07-22T09:43:19;21.13;;;2.40;;
63396;SDS011;49532;45.068;38.928;2022-07-22T09:48:21;30.42;;;2.50;;
63396;SDS011;49532;45.068;38.928;2022-07-22T09:53:54;8.93;;;1.40;;
63396;SDS011;49532;45.068;38.928;2022-07-22T09:59:00;18.42;;;1.77;;
63396;SDS011;49532;45.068;38.928;2022-07-22T10:04:10;12.02;;;1.40;;
63396;SDS011;49532;45.068;38.928;2022-07-22T10:09:14;3.92;;;1.20;;
63396;SDS011;49532;45.068;38.928;2022-07-22T10:14:17;3.50;;;0.90;;
63396;SDS011;49532;45.068;38.928;2022-07-22T10:19:20;4.65;;;1.17;;
63396;SDS011;49532;45.068;38.928;2022-07-22T10:24:22;4.13;;;1.00;;
63396;SDS011;49532;45.068;38.928;2022-07-22T10:29:41;7.85;;;1.35;;
63396;SDS011;49532;45.068;38.928;2022-07-22T10:40:16;5.50;;;1.23;;
63396;SDS011;49532;45.068;38.928;2022-07-22T10:45:20;7.67;;;1.57;;
63396;SDS011;49532;45.068;38.928;2022-07-22T11:01:03;24.15;;;4.55;;
63396;SDS011;49532;45.068;38.928;2022-07-22T11:11:30;13.43;;;3.58;;
63396;SDS011;49532;45.068;38.928;2022-07-22T11:16:33;24.70;;;13.10;;
63396;SDS011;49532;45.068;38.928;2022-07-22T11:21:34;679.97;;;220.98;;
63396;SDS011;49532;45.068;38.928;2022-07-22T11:26:40;1476.83;;;580.53;;
63396;SDS011;49532;45.068;38.928;2022-07-22T11:31:42;774.60;;;343.77;;
63396;SDS011;49532;45.068;38.928;2022-07-22T11:36:44;456.17;;;202.13;;
63396;SDS011;49532;45.068;38.928;2022-07-22T11:41:46;441.33;;;187.57;;
63396;SDS011;49532;45.068;38.928;2022-07-22T11:46:48;1426.53;;;530.42;;
63396;SDS011;49532;45.068;38.928;2022-07-22T11:56:51;1911.18;;;704.70;;
63396;SDS011;49532;45.068;38.928;2022-07-22T12:01:53;719.77;;;346.33;;
63396;SDS011;49532;45.068;38.928;2022-07-22T12:06:54;1999.90;;;901.53;;
63396;SDS011;49532;45.068;38.928;2022-07-22T12:11:57;1540.30;;;601.95;;
63396;SDS011;49532;45.068;38.928;2022-07-22T12:17:00;806.35;;;315.50;;
63396;SDS011;49532;45.068;38.928;2022-07-22T12:22:10;1573.80;;;614.63;;
63396;SDS011;49532;45.068;38.928;2022-07-22T12:27:15;1762.53;;;721.55;;
63396;SDS011;49532;45.068;38.928;2022-07-22T12:37:29;1843.50;;;682.30;;
63396;SDS011;49532;45.068;38.928;2022-07-22T12:42:45;1996.45;;;803.80;;
63396;SDS011;49532;45.068;38.928;2022-07-22T12:53:06;711.75;;;379.13;;
63396;SDS011;49532;45.068;38.928;2022-07-22T12:58:10;96.90;;;65.00;;
63396;SDS011;49532;45.068;38.928;2022-07-22T13:08:13;363.45;;;202.55;;
63396;SDS011;49532;45.068;38.928;2022-07-22T13:13:14;764.03;;;348.92;;
63396;SDS011;49532;45.068;38.928;2022-07-22T13:18:15;259.17;;;130.25;;
63396;SDS011;49532;45.068;38.928;2022-07-22T13:23:17;413.38;;;233.13;;
63396;SDS011;49532;45.068;38.928;2022-07-22T13:28:18;1126.63;;;602.55;;
63396;SDS011;49532;45.068;38.928;2022-07-22T13:38:21;1394.75;;;741.45;;
63396;SDS011;49532;45.068;38.928;2022-07-22T13:43:23;1130.00;;;582.97;;
63396;SDS011;49532;45.068;38.928;2022-07-22T13:48:25;357.02;;;213.32;;
63396;SDS011;49532;45.068;38.928;2022-07-22T13:53:26;154.88;;;105.38;;
63396;SDS011;49532;45.068;38.928;2022-07-22T13:58:27;241.23;;;131.35;;
63396;SDS011;49532;45.068;38.928;2022-07-22T14:03:28;66.70;;;57.90;;
63396;SDS011;49532;45.068;38.928;2022-07-22T14:08:29;606.50;;;363.75;;
63396;SDS011;49532;45.068;38.928;2022-07-22T14:13:31;124.32;;;66.40;;
63396;SDS011;49532;45.068;38.928;2022-07-22T14:18:32;64.63;;;45.03;;
63396;SDS011;49532;45.068;38.928;2022-07-22T14:23:33;747.90;;;447.52;;
63396;SDS011;49532;45.068;38.928;2022-07-22T14:28:34;526.55;;;306.85;;
63396;SDS011;49532;45.068;38.928;2022-07-22T14:33:35;212.55;;;111.80;;
63396;SDS011;49532;45.068;38.928;2022-07-22T14:38:36;47.22;;;38.75;;
63396;SDS011;49532;45.068;38.928;2022-07-22T14:43:37;255.15;;;145.52;;
63396;SDS011;49532;45.068;38.928;2022-07-22T14:48:39;532.27;;;281.73;;
63396;SDS011;49532;45.068;38.928;2022-07-22T14:53:41;1697.85;;;795.05;;
63396;SDS011;49532;45.068;38.928;2022-07-22T14:58:43;358.13;;;154.63;;
63396;SDS011;49532;45.068;38.928;2022-07-22T15:03:44;1190.32;;;564.55;;
63396;SDS011;49532;45.068;38.928;2022-07-22T15:08:45;134.60;;;68.53;;
63396;SDS011;49532;45.068;38.928;2022-07-22T15:13:46;715.40;;;317.75;;
63396;SDS011;49532;45.068;38.928;2022-07-22T15:18:47;924.35;;;438.70;;
63396;SDS011;49532;45.068;38.928;2022-07-22T15:23:48;1077.75;;;507.33;;
63396;SDS011;49532;45.068;38.928;2022-07-22T15:28:49;514.42;;;219.85;;
63396;SDS011;49532;45.068;38.928;2022-07-22T15:33:52;521.58;;;270.38;;
63396;SDS011;49532;45.068;38.928;2022-07-22T15:38:54;118.07;;;65.47;;
63396;SDS011;49532;45.068;38.928;2022-07-22T15:43:55;108.18;;;62.67;;
63396;SDS011;49532;45.068;38.928;2022-07-22T15:48:56;298.52;;;134.45;;
63396;SDS011;49532;45.068;38.928;2022-07-22T15:53:58;721.10;;;341.50;;
63396;SDS011;49532;45.068;38.928;2022-07-22T15:58:59;87.93;;;49.10;;
63396;SDS011;49532;45.068;38.928;2022-07-22T16:04:20;129.65;;;69.03;;
63396;SDS011;49532;45.068;38.928;2022-07-22T16:09:21;230.23;;;119.97;;
63396;SDS011;49532;45.068;38.928;2022-07-22T16:14:22;94.88;;;60.15;;
63396;SDS011;49532;45.068;38.928;2022-07-22T16:19:24;402.85;;;188.35;;
63396;SDS011;49532;45.068;38.928;2022-07-22T16:24:25;442.45;;;205.70;;
63396;SDS011;49532;45.068;38.928;2022-07-22T16:29:26;283.75;;;125.90;;
63396;SDS011;49532;45.068;38.928;2022-07-22T16:34:27;577.80;;;238.70;;
63396;SDS011;49532;45.068;38.928;2022-07-22T16:39:28;109.97;;;53.50;;
63396;SDS011;49532;45.068;38.928;2022-07-22T16:44:29;98.55;;;50.28;;
63396;SDS011;49532;45.068;38.928;2022-07-22T16:49:30;130.60;;;54.40;;
63396;SDS011;49532;45.068;38.928;2022-07-22T16:54:31;243.13;;;112.13;;
63396;SDS011;49532;45.068;38.928;2022-07-22T16:59:32;663.42;;;287.08;;
63396;SDS011;49532;45.068;38.928;2022-07-22T17:04:33;660.35;;;285.58;;
63396;SDS011;49532;45.068;38.928;2022-07-22T17:09:34;518.47;;;201.80;;
63396;SDS011;49532;45.068;38.928;2022-07-22T17:14:35;493.92;;;207.85;;
63396;SDS011;49532;45.068;38.928;2022-07-22T17:19:36;490.30;;;207.90;;
63396;SDS011;49532;45.068;38.928;2022-07-22T17:24:37;544.88;;;223.93;;
63396;SDS011;49532;45.068;38.928;2022-07-22T17:29:39;446.67;;;190.65;;
63396;SDS011;49532;45.068;38.928;2022-07-22T17:34:40;590.07;;;221.03;;
63396;SDS011;49532;45.068;38.928;2022-07-22T17:39:41;560.33;;;245.68;;
63396;SDS011;49532;45.068;38.928;2022-07-22T17:44:43;471.83;;;202.03;;
63396;SDS011;49532;45.068;38.928;2022-07-22T17:49:44;15.30;;;8.83;;
63396;SDS011;49532;45.068;38.928;2022-07-22T17:54:46;30.33;;;20.35;;
63396;SDS011;49532;45.068;38.928;2022-07-22T17:59:47;30.55;;;19.45;;
63396;SDS011;49532;45.068;38.928;2022-07-22T18:04:48;51.60;;;35.10;;
63396;SDS011;49532;45.068;38.928;2022-07-22T18:09:50;49.92;;;32.00;;
63396;SDS011;49532;45.068;38.928;2022-07-22T18:14:51;68.63;;;31.35;;
63396;SDS011;49532;45.068;38.928;2022-07-22T18:19:52;158.82;;;76.40;;
63396;SDS011;49532;45.068;38.928;2022-07-22T18:24:53;240.02;;;119.55;;
63396;SDS011;49532;45.068;38.928;2022-07-22T18:29:55;120.38;;;63.55;;
63396;SDS011;49532;45.068;38.928;2022-07-22T18:34:56;692.95;;;335.00;;
63396;SDS011;49532;45.068;38.928;2022-07-22T18:39:57;690.72;;;327.90;;
63396;SDS011;49532;45.068;38.928;2022-07-22T18:44:58;79.30;;;43.80;;
63396;SDS011;49532;45.068;38.928;2022-07-22T18:49:59;284.42;;;151.60;;
63396;SDS011;49532;45.068;38.928;2022-07-22T18:55:00;441.80;;;216.52;;
63396;SDS011;49532;45.068;38.928;2022-07-22T19:00:02;81.53;;;49.07;;
